createdAt,value
2017-09-06T00:00:24.951Z,944.9
2017-09-06T00:01:32.906Z,944.9
2017-09-06T00:02:40.940Z,944.9
2017-09-06T00:03:49.042Z,944.9
2017-09-06T00:04:57.112Z,944.9
2017-09-06T00:06:05.209Z,944.9
2017-09-06T00:07:13.342Z,944.9
2017-09-06T00:08:21.376Z,944.9
2017-09-06T00:09:29.461Z,944.9
2017-09-06T00:10:37.548Z,944.9
2017-09-06T00:11:45.636Z,944.8
2017-09-06T00:12:53.778Z,944.9
2017-09-06T00:14:01.811Z,944.8
2017-09-06T00:15:09.905Z,944.8
2017-09-06T00:16:18.121Z,944.8
2017-09-06T00:17:26.090Z,944.8
2017-09-06T00:18:34.296Z,944.7
2017-09-06T00:19:42.265Z,944.7
2017-09-06T00:20:50.360Z,944.7
2017-09-06T00:21:58.438Z,944.7
2017-09-06T00:23:06.528Z,944.7
2017-09-06T00:24:14.671Z,944.7
2017-09-06T00:25:22.702Z,944.8
2017-09-06T00:26:30.788Z,944.7
2017-09-06T00:27:38.878Z,944.7
2017-09-06T00:28:46.960Z,944.7
2017-09-06T00:29:55.171Z,944.7
2017-09-06T00:31:03.150Z,944.7
2017-09-06T00:32:11.283Z,944.7
2017-09-06T00:33:19.394Z,944.6
2017-09-06T00:34:27.403Z,944.6
2017-09-06T00:35:35.552Z,944.6
2017-09-06T00:36:43.575Z,944.6
2017-09-06T00:37:51.668Z,944.6
2017-09-06T00:38:59.750Z,944.7
2017-09-06T00:40:07.838Z,944.7
2017-09-06T00:41:16.046Z,944.8
2017-09-06T00:42:24.015Z,944.7
2017-09-06T00:43:32.102Z,944.7
2017-09-06T00:44:40.188Z,944.7
2017-09-06T00:45:48.284Z,944.6
2017-09-06T00:46:56.429Z,944.7
2017-09-06T00:48:04.513Z,944.7
2017-09-06T00:49:12.547Z,944.7
2017-09-06T00:50:20.828Z,944.7
2017-09-06T00:51:28.730Z,944.7
2017-09-06T00:52:36.936Z,944.7
2017-09-06T00:53:44.902Z,944.6
2017-09-06T00:54:52.990Z,944.7
2017-09-06T00:56:01.108Z,944.6
2017-09-06T00:57:09.240Z,944.6
2017-09-06T00:58:17.309Z,944.6
2017-09-06T00:59:25.341Z,944.7
2017-09-06T01:00:33.428Z,944.7
2017-09-06T01:01:41.516Z,944.7
2017-09-06T01:02:49.602Z,944.6
2017-09-06T01:03:57.746Z,944.6
2017-09-06T01:05:05.779Z,944.6
2017-09-06T01:06:13.867Z,944.6
2017-09-06T01:07:21.953Z,944.6
2017-09-06T01:08:30.040Z,944.6
2017-09-06T01:09:38.386Z,944.6
2017-09-06T01:10:46.214Z,944.6
2017-09-06T01:11:54.301Z,944.6
2017-09-06T01:13:02.388Z,944.6
2017-09-06T01:14:10.476Z,944.6
2017-09-06T01:15:18.618Z,944.5
2017-09-06T01:16:26.650Z,944.5
2017-09-06T01:17:34.738Z,944.5
2017-09-06T01:18:42.823Z,944.6
2017-09-06T01:19:51.045Z,944.5
2017-09-06T01:20:59.134Z,944.5
2017-09-06T01:22:07.277Z,944.5
2017-09-06T01:23:15.304Z,944.5
2017-09-06T01:24:23.279Z,944.5
2017-09-06T01:25:31.365Z,944.5
2017-09-06T01:26:39.508Z,944.5
2017-09-06T01:27:47.657Z,944.4
2017-09-06T01:28:55.636Z,944.5
2017-09-06T01:30:03.713Z,944.4
2017-09-06T01:31:11.802Z,944.4
2017-09-06T01:32:20.100Z,944.4
2017-09-06T01:33:27.978Z,944.4
2017-09-06T01:34:36.064Z,944.4
2017-09-06T01:35:44.273Z,944.4
2017-09-06T01:36:52.239Z,944.4
2017-09-06T01:38:00.391Z,944.5
2017-09-06T01:39:08.424Z,944.4
2017-09-06T01:40:16.500Z,944.4
2017-09-06T01:41:24.587Z,944.4
2017-09-06T01:42:32.847Z,944.4
2017-09-06T01:43:40.818Z,944.4
2017-09-06T01:44:48.851Z,944.4
2017-09-06T01:45:56.938Z,944.5
2017-09-06T01:47:05.023Z,944.4
2017-09-06T01:48:13.171Z,944.4
2017-09-06T01:49:21.371Z,944.4
2017-09-06T01:50:29.493Z,944.5
2017-09-06T01:51:37.482Z,944.5
2017-09-06T01:52:45.514Z,944.5
2017-09-06T01:53:53.602Z,944.5
2017-09-06T01:55:01.749Z,944.5
2017-09-06T01:56:09.874Z,944.5
2017-09-06T01:57:17.868Z,944.5
2017-09-06T01:58:25.965Z,944.5
2017-09-06T01:59:34.053Z,944.5
2017-09-06T02:00:42.261Z,944.5
2017-09-06T02:01:50.226Z,944.5
2017-09-06T02:02:58.323Z,944.5
2017-09-06T02:04:06.417Z,944.6
2017-09-06T02:05:14.606Z,944.5
2017-09-06T02:06:22.649Z,944.6
2017-09-06T02:07:30.735Z,944.6
2017-09-06T02:08:38.803Z,944.6
2017-09-06T02:09:46.852Z,944.5
2017-09-06T02:10:54.959Z,944.5
2017-09-06T02:12:03.153Z,944.5
2017-09-06T02:13:11.119Z,944.5
2017-09-06T02:14:19.206Z,944.5
2017-09-06T02:15:27.294Z,944.5
2017-09-06T02:16:35.379Z,944.5
2017-09-06T02:17:43.522Z,944.5
2017-09-06T02:18:51.552Z,944.4
2017-09-06T02:19:59.639Z,944.4
2017-09-06T02:21:07.728Z,944.4
2017-09-06T02:22:15.814Z,944.4
2017-09-06T02:23:23.958Z,944.4
2017-09-06T02:24:31.990Z,944.4
2017-09-06T02:25:40.077Z,944.4
2017-09-06T02:26:48.165Z,944.3
2017-09-06T02:27:56.252Z,944.3
2017-09-06T02:29:04.459Z,944.4
2017-09-06T02:30:12.444Z,944.4
2017-09-06T02:31:20.516Z,944.3
2017-09-06T02:32:28.721Z,944.3
2017-09-06T02:33:36.825Z,944.3
2017-09-06T02:34:44.837Z,944.3
2017-09-06T02:35:52.863Z,944.3
2017-09-06T02:37:01.145Z,944.3
2017-09-06T02:38:09.036Z,944.3
2017-09-06T02:39:17.179Z,944.3
2017-09-06T02:40:25.330Z,944.3
2017-09-06T02:41:33.375Z,944.2
2017-09-06T02:42:41.388Z,944.2
2017-09-06T02:43:49.474Z,944.2
2017-09-06T02:44:57.561Z,944.2
2017-09-06T02:46:05.705Z,944.2
2017-09-06T02:47:13.734Z,944.2
2017-09-06T02:48:21.821Z,944.2
2017-09-06T02:49:29.907Z,944.2
2017-09-06T02:50:37.995Z,944.1
2017-09-06T02:51:46.139Z,944.1
2017-09-06T02:52:54.174Z,944.1
2017-09-06T02:54:02.259Z,944.1
2017-09-06T02:55:10.467Z,944.1
2017-09-06T02:56:18.431Z,944.1
2017-09-06T02:57:26.576Z,944.1
2017-09-06T02:58:34.604Z,944.1
2017-09-06T02:59:42.691Z,944.1
2017-09-06T03:00:50.780Z,944.1
2017-09-06T03:01:58.866Z,944.1
2017-09-06T03:03:07.011Z,944.0
2017-09-06T03:04:15.052Z,944.0
2017-09-06T03:05:23.162Z,944.1
2017-09-06T03:06:31.222Z,944.1
2017-09-06T03:07:39.311Z,944.1
2017-09-06T03:08:47.526Z,944.0
2017-09-06T03:09:55.484Z,944.0
2017-09-06T03:11:03.633Z,944.1
2017-09-06T03:12:11.660Z,944.0
2017-09-06T03:13:19.746Z,944.1
2017-09-06T03:14:27.907Z,944.1
2017-09-06T03:15:35.919Z,944.1
2017-09-06T03:16:44.022Z,944.0
2017-09-06T03:17:52.109Z,944.0
2017-09-06T03:19:00.197Z,944.0
2017-09-06T03:20:08.405Z,944.0
2017-09-06T03:21:16.370Z,944.0
2017-09-06T03:22:24.457Z,944.1
2017-09-06T03:23:32.543Z,944.1
2017-09-06T03:24:40.630Z,944.0
2017-09-06T03:25:48.774Z,944.1
2017-09-06T03:26:56.942Z,944.0
2017-09-06T03:28:04.986Z,944.0
2017-09-06T03:29:12.989Z,944.1
2017-09-06T03:30:21.077Z,944.1
2017-09-06T03:31:29.283Z,944.1
2017-09-06T03:32:37.250Z,944.0
2017-09-06T03:33:45.343Z,944.0
2017-09-06T03:34:53.432Z,944.0
2017-09-06T03:36:01.520Z,944.0
2017-09-06T03:37:09.665Z,943.9
2017-09-06T03:38:17.702Z,944.0
2017-09-06T03:39:25.780Z,943.9
2017-09-06T03:40:33.868Z,943.9
2017-09-06T03:41:42.135Z,943.9
2017-09-06T03:42:50.162Z,943.9
2017-09-06T03:43:58.132Z,943.9
2017-09-06T03:45:06.225Z,944.0
2017-09-06T03:46:14.471Z,943.9
2017-09-06T03:47:22.419Z,944.0
2017-09-06T03:48:30.533Z,944.0
2017-09-06T03:49:38.564Z,944.0
2017-09-06T03:50:46.651Z,944.0
2017-09-06T03:51:54.754Z,944.0
2017-09-06T03:53:02.842Z,944.0
2017-09-06T03:54:10.984Z,944.0
2017-09-06T03:55:19.014Z,944.0
2017-09-06T03:56:27.102Z,944.0
2017-09-06T03:57:35.188Z,943.9
2017-09-06T03:58:43.396Z,943.9
2017-09-06T03:59:51.469Z,943.9
2017-09-06T04:00:59.451Z,943.9
2017-09-06T04:02:07.539Z,943.9
2017-09-06T04:03:15.626Z,943.9
2017-09-06T04:04:23.713Z,943.9
2017-09-06T04:05:31.854Z,943.9
2017-09-06T04:06:39.884Z,943.9
2017-09-06T04:07:47.988Z,943.9
2017-09-06T04:08:56.235Z,943.9
2017-09-06T04:10:04.807Z,943.9
2017-09-06T04:11:12.302Z,943.9
2017-09-06T04:12:20.521Z,943.9
2017-09-06T04:13:28.414Z,943.9
2017-09-06T04:14:36.618Z,943.9
2017-09-06T04:15:44.595Z,943.9
2017-09-06T04:16:52.739Z,944.0
2017-09-06T04:18:00.941Z,943.9
2017-09-06T04:19:08.867Z,943.9
2017-09-06T04:20:16.952Z,943.9
2017-09-06T04:21:25.036Z,943.9
2017-09-06T04:22:33.345Z,943.9
2017-09-06T04:23:41.220Z,943.9
2017-09-06T04:24:49.301Z,943.9
2017-09-06T04:25:57.390Z,943.9
2017-09-06T04:27:05.477Z,943.9
2017-09-06T04:28:13.797Z,943.9
2017-09-06T04:29:21.650Z,943.9
2017-09-06T04:30:31.862Z,943.9
2017-09-06T04:31:37.821Z,943.9
2017-09-06T04:32:46.016Z,943.9
2017-09-06T04:33:56.150Z,943.9
2017-09-06T04:35:02.083Z,943.9
2017-09-06T04:36:10.172Z,943.9
2017-09-06T04:37:18.451Z,943.8
2017-09-06T04:38:26.847Z,943.9
2017-09-06T04:39:34.935Z,943.9
2017-09-06T04:40:43.033Z,943.9
2017-09-06T04:41:50.742Z,943.9
2017-09-06T04:42:58.691Z,943.9
2017-09-06T04:44:06.780Z,943.9
2017-09-06T04:45:14.924Z,943.9
2017-09-06T04:46:23.096Z,943.9
2017-09-06T04:47:31.041Z,943.9
2017-09-06T04:48:39.129Z,943.9
2017-09-06T04:49:47.239Z,943.9
2017-09-06T04:50:55.614Z,944.0
2017-09-06T04:52:03.398Z,944.0
2017-09-06T04:53:11.486Z,944.0
2017-09-06T04:54:19.575Z,944.0
2017-09-06T04:55:27.660Z,944.1
2017-09-06T04:56:35.802Z,944.1
2017-09-06T04:57:43.834Z,944.1
2017-09-06T04:58:52.401Z,944.1
2017-09-06T05:00:00.576Z,944.1
2017-09-06T05:01:08.132Z,944.2
2017-09-06T05:02:16.241Z,944.2
2017-09-06T05:03:24.269Z,944.2
2017-09-06T05:04:32.356Z,944.1
2017-09-06T05:05:40.442Z,944.1
2017-09-06T05:06:48.529Z,944.1
2017-09-06T05:07:56.735Z,944.1
2017-09-06T05:09:04.886Z,944.1
2017-09-06T05:10:12.790Z,944.1
2017-09-06T05:11:20.945Z,944.2
2017-09-06T05:12:28.965Z,944.2
2017-09-06T05:13:37.109Z,944.3
2017-09-06T05:14:45.160Z,944.3
2017-09-06T05:15:53.226Z,944.3
2017-09-06T05:17:01.315Z,944.2
2017-09-06T05:18:09.455Z,944.2
2017-09-06T05:19:18.018Z,944.2
2017-09-06T05:20:25.573Z,944.3
2017-09-06T05:21:33.661Z,944.2
2017-09-06T05:22:41.815Z,944.2
2017-09-06T05:23:49.845Z,944.2
2017-09-06T05:24:58.041Z,944.2
2017-09-06T05:26:06.008Z,944.2
2017-09-06T05:27:14.267Z,944.2
2017-09-06T05:28:22.194Z,944.2
2017-09-06T05:29:30.278Z,944.2
2017-09-06T05:30:38.420Z,944.2
2017-09-06T05:31:46.453Z,944.3
2017-09-06T05:32:54.538Z,944.3
2017-09-06T05:34:02.681Z,944.3
2017-09-06T05:35:10.710Z,944.3
2017-09-06T05:36:18.854Z,944.3
2017-09-06T05:37:26.985Z,944.3
2017-09-06T05:38:34.976Z,944.4
2017-09-06T05:39:43.061Z,944.3
2017-09-06T05:40:51.150Z,944.4
2017-09-06T05:41:59.323Z,944.4
2017-09-06T05:43:07.331Z,944.4
2017-09-06T05:44:15.407Z,944.4
2017-09-06T05:45:23.496Z,944.4
2017-09-06T05:46:31.583Z,944.4
2017-09-06T05:47:39.726Z,944.4
2017-09-06T05:48:47.760Z,944.4
2017-09-06T05:49:55.901Z,944.4
2017-09-06T05:51:03.937Z,944.3
2017-09-06T05:52:12.021Z,944.3
2017-09-06T05:53:20.227Z,944.3
2017-09-06T05:54:28.193Z,944.4
2017-09-06T05:55:36.391Z,944.3
2017-09-06T05:56:44.368Z,944.3
2017-09-06T05:57:52.456Z,944.3
2017-09-06T05:59:00.599Z,944.4
2017-09-06T06:00:08.629Z,944.4
2017-09-06T06:01:16.768Z,944.4
2017-09-06T06:02:24.848Z,944.4
2017-09-06T06:03:32.945Z,944.4
2017-09-06T06:04:41.096Z,944.3
2017-09-06T06:05:49.249Z,944.4
2017-09-06T06:06:57.215Z,944.4
2017-09-06T06:08:05.302Z,944.3
2017-09-06T06:09:13.388Z,944.4
2017-09-06T06:10:21.539Z,944.4
2017-09-06T06:11:29.572Z,944.4
2017-09-06T06:12:37.657Z,944.4
2017-09-06T06:13:45.779Z,944.4
2017-09-06T06:14:53.835Z,944.4
2017-09-06T06:16:01.984Z,944.4
2017-09-06T06:17:10.012Z,944.3
2017-09-06T06:18:18.101Z,944.3
2017-09-06T06:19:26.224Z,944.3
2017-09-06T06:20:34.274Z,944.3
2017-09-06T06:21:42.515Z,944.3
2017-09-06T06:22:50.450Z,944.4
2017-09-06T06:23:58.536Z,944.4
2017-09-06T06:25:06.624Z,944.4
2017-09-06T06:26:14.710Z,944.4
2017-09-06T06:27:22.915Z,944.3
2017-09-06T06:28:30.887Z,944.4
2017-09-06T06:29:38.974Z,944.4
2017-09-06T06:30:47.060Z,944.4
2017-09-06T06:31:55.148Z,944.4
2017-09-06T06:33:03.290Z,944.4
2017-09-06T06:34:11.319Z,944.5
2017-09-06T06:35:19.415Z,944.5
2017-09-06T06:36:27.507Z,944.5
2017-09-06T06:37:35.728Z,944.5
2017-09-06T06:38:43.821Z,944.4
2017-09-06T06:39:51.768Z,944.5
2017-09-06T06:40:59.859Z,944.5
2017-09-06T06:42:07.941Z,944.5
2017-09-06T06:43:16.029Z,944.5
2017-09-06T06:44:24.171Z,944.5
2017-09-06T06:45:32.208Z,944.4
2017-09-06T06:46:40.296Z,944.4
2017-09-06T06:47:48.382Z,944.4
2017-09-06T06:48:56.470Z,944.4
2017-09-06T06:50:04.809Z,944.4
2017-09-06T06:51:12.650Z,944.3
2017-09-06T06:52:20.739Z,944.3
2017-09-06T06:53:28.883Z,944.4
2017-09-06T06:54:36.913Z,944.3
2017-09-06T06:55:45.073Z,944.4
2017-09-06T06:56:53.099Z,944.4
2017-09-06T06:58:01.183Z,944.4
2017-09-06T06:59:09.271Z,944.4
2017-09-06T07:00:17.358Z,944.3
2017-09-06T07:01:25.566Z,944.3
2017-09-06T07:02:33.550Z,944.3
2017-09-06T07:03:41.824Z,944.3
2017-09-06T07:04:49.827Z,944.3
2017-09-06T07:05:57.810Z,944.3
2017-09-06T07:07:05.952Z,944.2
2017-09-06T07:08:13.983Z,944.2
2017-09-06T07:09:22.297Z,944.2
2017-09-06T07:10:30.156Z,944.2
2017-09-06T07:11:38.243Z,944.2
2017-09-06T07:12:46.387Z,944.3
2017-09-06T07:13:54.433Z,944.3
2017-09-06T07:15:02.504Z,944.3
2017-09-06T07:16:10.591Z,944.3
2017-09-06T07:17:18.679Z,944.3
2017-09-06T07:18:27.033Z,944.3
2017-09-06T07:19:34.880Z,944.3
2017-09-06T07:20:42.953Z,944.3
2017-09-06T07:21:51.042Z,944.3
2017-09-06T07:22:59.308Z,944.4
2017-09-06T07:24:07.270Z,944.4
2017-09-06T07:25:15.432Z,944.3
2017-09-06T07:26:23.388Z,944.3
2017-09-06T07:27:31.476Z,944.3
2017-09-06T07:28:39.565Z,944.3
2017-09-06T07:29:47.706Z,944.3
2017-09-06T07:30:55.736Z,944.3
2017-09-06T07:32:03.902Z,944.3
2017-09-06T07:33:11.912Z,944.3
2017-09-06T07:34:19.999Z,944.3
2017-09-06T07:35:28.141Z,944.3
2017-09-06T07:36:36.266Z,944.3
2017-09-06T07:37:44.257Z,944.2
2017-09-06T07:38:52.343Z,944.2
2017-09-06T07:40:00.432Z,944.2
2017-09-06T07:41:08.577Z,944.2
2017-09-06T07:42:16.606Z,944.2
2017-09-06T07:43:24.695Z,944.2
2017-09-06T07:44:32.785Z,944.2
2017-09-06T07:45:40.870Z,944.2
2017-09-06T07:46:49.013Z,944.2
2017-09-06T07:47:57.044Z,944.2
2017-09-06T07:49:05.130Z,944.2
2017-09-06T07:50:13.219Z,944.2
2017-09-06T07:51:21.352Z,944.3
2017-09-06T07:52:29.448Z,944.2
2017-09-06T07:53:37.480Z,944.2
2017-09-06T07:54:45.565Z,944.2
2017-09-06T07:55:53.700Z,944.3
2017-09-06T07:57:01.858Z,944.2
2017-09-06T07:58:09.881Z,944.3
2017-09-06T07:59:17.920Z,944.3
2017-09-06T08:00:26.150Z,944.3
2017-09-06T08:01:34.087Z,944.3
2017-09-06T08:02:42.173Z,944.3
2017-09-06T08:03:50.950Z,944.3
2017-09-06T08:04:58.347Z,944.3
2017-09-06T08:06:06.432Z,944.2
2017-09-06T08:07:14.522Z,944.3
2017-09-06T08:08:22.675Z,944.2
2017-09-06T08:09:30.950Z,944.2
2017-09-06T08:10:38.958Z,944.3
2017-09-06T08:11:47.047Z,944.2
2017-09-06T08:12:55.253Z,944.2
2017-09-06T08:14:03.218Z,944.2
2017-09-06T08:15:11.427Z,944.2
2017-09-06T08:16:19.391Z,944.2
2017-09-06T08:17:27.479Z,944.2
2017-09-06T08:18:35.573Z,944.2
2017-09-06T08:19:43.670Z,944.2
2017-09-06T08:20:51.812Z,944.2
2017-09-06T08:21:59.842Z,944.2
2017-09-06T08:23:07.928Z,944.2
2017-09-06T08:24:16.015Z,944.1
2017-09-06T08:25:24.104Z,944.2
2017-09-06T08:26:32.246Z,944.2
2017-09-06T08:27:40.276Z,944.2
2017-09-06T08:28:48.487Z,944.2
2017-09-06T08:29:56.451Z,944.2
2017-09-06T08:31:04.539Z,944.3
2017-09-06T08:32:12.746Z,944.2
2017-09-06T08:33:20.722Z,944.2
2017-09-06T08:34:28.811Z,944.2
2017-09-06T08:35:36.897Z,944.2
2017-09-06T08:36:44.993Z,944.2
2017-09-06T08:37:53.200Z,944.1
2017-09-06T08:39:01.168Z,944.2
2017-09-06T08:40:09.253Z,944.3
2017-09-06T08:56:04.241Z,944.2
2017-09-06T08:57:12.243Z,944.2
2017-09-06T08:58:20.327Z,944.2
2017-09-06T08:59:28.418Z,944.3
2017-09-06T09:00:36.731Z,944.2
2017-09-06T09:01:44.636Z,944.2
2017-09-06T09:02:52.664Z,944.3
2017-09-06T09:04:00.753Z,944.3
2017-09-06T09:05:08.835Z,944.3
2017-09-06T09:06:16.982Z,944.2
2017-09-06T09:07:25.006Z,944.2
2017-09-06T09:08:33.095Z,944.2
2017-09-06T09:09:41.183Z,944.1
2017-09-06T09:10:49.286Z,944.2
2017-09-06T09:11:57.410Z,944.2
2017-09-06T09:13:05.448Z,944.2
2017-09-06T09:14:13.684Z,944.2
2017-09-06T09:15:21.614Z,944.2
2017-09-06T09:16:29.710Z,944.2
2017-09-06T09:17:37.917Z,944.2
2017-09-06T09:18:45.882Z,944.1
2017-09-06T09:19:53.970Z,944.2
2017-09-06T09:21:02.065Z,944.2
2017-09-06T09:22:10.157Z,944.1
2017-09-06T09:23:18.458Z,944.2
2017-09-06T09:24:26.408Z,944.2
2017-09-06T09:25:34.424Z,944.2
2017-09-06T09:26:42.513Z,944.2
2017-09-06T09:27:50.604Z,944.2
2017-09-06T09:28:58.878Z,944.2
2017-09-06T09:30:06.796Z,944.2
2017-09-06T09:31:14.878Z,944.1
2017-09-06T09:32:23.080Z,944.2
2017-09-06T09:33:31.147Z,944.2
2017-09-06T09:34:39.196Z,944.2
2017-09-06T09:35:47.228Z,944.2
2017-09-06T09:36:55.314Z,944.2
2017-09-06T09:38:03.404Z,944.1
2017-09-06T09:39:11.486Z,944.1
2017-09-06T09:40:19.705Z,944.2
2017-09-06T09:41:27.671Z,944.2
2017-09-06T09:42:35.889Z,944.1
2017-09-06T09:43:43.848Z,944.1
2017-09-06T09:44:51.935Z,944.1
2017-09-06T09:46:00.149Z,944.1
2017-09-06T09:47:08.233Z,944.1
2017-09-06T09:48:16.261Z,944.1
2017-09-06T09:49:24.353Z,944.0
2017-09-06T09:50:32.376Z,944.0
2017-09-06T09:51:40.530Z,944.0
2017-09-06T09:52:48.550Z,944.1
2017-09-06T09:53:56.640Z,944.1
2017-09-06T09:55:04.722Z,944.0
2017-09-06T09:56:12.811Z,944.0
2017-09-06T09:57:20.955Z,944.1
2017-09-06T09:58:28.988Z,944.0
2017-09-06T09:59:37.076Z,944.1
2017-09-06T10:00:45.162Z,944.1
2017-09-06T10:01:53.251Z,944.1
2017-09-06T10:03:01.402Z,944.1
2017-09-06T10:04:09.433Z,944.0
2017-09-06T10:05:17.641Z,944.1
2017-09-06T10:06:25.608Z,944.1
2017-09-06T10:07:33.697Z,944.2
2017-09-06T10:08:41.841Z,944.2
2017-09-06T10:09:49.873Z,944.2
2017-09-06T10:10:58.158Z,944.2
2017-09-06T10:12:06.049Z,944.2
2017-09-06T10:13:14.134Z,944.2
2017-09-06T10:14:22.341Z,944.2
2017-09-06T10:15:30.309Z,944.2
2017-09-06T10:16:38.397Z,944.2
2017-09-06T10:17:46.485Z,944.2
2017-09-06T10:18:54.735Z,944.2
2017-09-06T10:20:02.719Z,944.2
2017-09-06T10:21:10.811Z,944.1
2017-09-06T10:22:18.836Z,944.1
2017-09-06T10:23:26.975Z,944.2
2017-09-06T10:24:35.023Z,944.1
2017-09-06T10:25:43.155Z,944.1
2017-09-06T10:26:51.188Z,944.1
2017-09-06T10:27:59.275Z,944.1
2017-09-06T10:29:07.362Z,944.1
2017-09-06T10:30:15.450Z,944.1
2017-09-06T10:31:23.599Z,944.0
2017-09-06T10:32:31.650Z,944.1
2017-09-06T10:33:39.738Z,944.1
2017-09-06T10:34:47.828Z,944.1
2017-09-06T10:35:55.915Z,944.2
2017-09-06T10:37:04.316Z,944.1
2017-09-06T10:38:12.099Z,944.1
2017-09-06T10:39:20.186Z,944.1
2017-09-06T10:40:28.282Z,944.1
2017-09-06T10:41:36.529Z,944.1
2017-09-06T10:42:44.576Z,944.2
2017-09-06T10:43:52.543Z,944.1
2017-09-06T10:45:00.757Z,944.1
2017-09-06T10:46:08.882Z,944.1
2017-09-06T10:47:16.807Z,944.1
2017-09-06T10:48:24.950Z,944.1
2017-09-06T10:49:32.984Z,944.1
2017-09-06T10:50:41.070Z,944.1
2017-09-06T10:51:49.159Z,944.1
2017-09-06T10:52:57.364Z,944.0
2017-09-06T10:54:05.392Z,944.0
2017-09-06T10:55:13.476Z,944.0
2017-09-06T10:56:21.705Z,944.0
2017-09-06T10:57:29.595Z,944.0
2017-09-06T10:58:37.685Z,944.0
2017-09-06T10:59:46.052Z,944.0
2017-09-06T11:00:53.861Z,944.0
2017-09-06T11:02:01.971Z,944.0
2017-09-06T11:03:10.035Z,944.0
2017-09-06T11:04:18.125Z,944.0
2017-09-06T11:05:26.268Z,944.0
2017-09-06T11:06:34.300Z,944.0
2017-09-06T11:07:42.389Z,944.0
2017-09-06T11:08:50.530Z,944.0
2017-09-06T11:09:58.593Z,944.0
2017-09-06T11:11:06.802Z,943.9
2017-09-06T11:12:14.780Z,944.0
2017-09-06T11:13:22.867Z,944.0
2017-09-06T11:14:30.955Z,943.9
2017-09-06T11:15:39.044Z,943.9
2017-09-06T11:16:47.250Z,944.0
2017-09-06T11:17:55.268Z,943.9
2017-09-06T11:19:03.306Z,944.0
2017-09-06T11:20:11.395Z,944.0
2017-09-06T11:21:19.484Z,943.9
2017-09-06T11:22:27.625Z,943.9
2017-09-06T11:23:35.658Z,943.9
2017-09-06T11:24:43.802Z,943.9
2017-09-06T11:25:51.833Z,943.9
2017-09-06T11:26:59.939Z,944.0
2017-09-06T11:28:08.148Z,943.9
2017-09-06T11:29:16.113Z,944.0
2017-09-06T11:30:24.266Z,944.0
2017-09-06T11:31:32.294Z,944.0
2017-09-06T11:32:40.382Z,944.0
2017-09-06T11:33:48.522Z,944.0
2017-09-06T11:34:56.557Z,944.0
2017-09-06T11:36:04.645Z,944.0
2017-09-06T11:37:12.844Z,943.9
2017-09-06T11:38:20.819Z,944.0
2017-09-06T11:39:28.964Z,943.9
2017-09-06T11:40:37.049Z,944.0
2017-09-06T11:41:45.081Z,943.9
2017-09-06T11:42:53.175Z,943.9
2017-09-06T11:44:01.259Z,944.0
2017-09-06T11:45:09.469Z,944.0
2017-09-06T11:46:17.434Z,944.0
2017-09-06T11:47:25.528Z,944.0
2017-09-06T11:48:33.608Z,943.9
2017-09-06T11:49:41.703Z,943.9
2017-09-06T11:50:50.021Z,943.9
2017-09-06T11:51:57.873Z,943.9
2017-09-06T11:53:05.964Z,943.9
2017-09-06T11:54:14.048Z,943.9
2017-09-06T11:55:22.309Z,943.9
2017-09-06T11:56:30.346Z,943.8
2017-09-06T11:57:38.312Z,943.9
2017-09-06T11:58:46.397Z,943.8
2017-09-06T11:59:54.555Z,943.8
2017-09-06T12:01:02.576Z,943.8
2017-09-06T12:02:10.720Z,943.8
2017-09-06T12:03:18.752Z,943.8
2017-09-06T12:04:26.840Z,943.8
2017-09-06T12:05:34.930Z,943.8
2017-09-06T12:06:43.017Z,943.8
2017-09-06T12:07:51.159Z,943.8
2017-09-06T12:08:59.189Z,943.8
2017-09-06T12:10:07.278Z,943.7
2017-09-06T12:11:15.369Z,943.7
2017-09-06T12:12:23.574Z,943.7
2017-09-06T12:13:31.599Z,943.7
2017-09-06T12:14:39.632Z,943.7
2017-09-06T12:15:47.717Z,943.8
2017-09-06T12:16:55.812Z,943.8
2017-09-06T12:18:03.895Z,943.8
2017-09-06T12:19:12.102Z,943.8
2017-09-06T12:20:20.070Z,943.8
2017-09-06T12:21:28.158Z,943.8
2017-09-06T12:22:36.260Z,943.7
2017-09-06T12:23:44.337Z,943.8
2017-09-06T12:24:52.481Z,943.8
2017-09-06T12:26:00.515Z,943.8
2017-09-06T12:27:08.600Z,943.8
2017-09-06T12:28:16.744Z,943.7
2017-09-06T12:29:24.775Z,943.7
2017-09-06T12:30:32.984Z,943.7
2017-09-06T12:31:40.952Z,943.7
2017-09-06T12:32:49.042Z,943.8
2017-09-06T12:33:57.130Z,943.8
2017-09-06T12:35:05.225Z,943.7
2017-09-06T12:36:13.374Z,943.7
2017-09-06T12:37:21.400Z,943.7
2017-09-06T12:38:29.491Z,943.6
2017-09-06T12:39:37.585Z,943.6
2017-09-06T12:40:45.843Z,943.6
2017-09-06T12:41:53.883Z,943.6
2017-09-06T12:43:01.848Z,943.6
2017-09-06T12:44:09.991Z,943.6
2017-09-06T12:45:18.028Z,943.6
2017-09-06T12:46:26.109Z,943.6
2017-09-06T12:47:34.259Z,943.6
2017-09-06T12:48:42.291Z,943.6
2017-09-06T12:49:50.374Z,943.7
2017-09-06T12:50:58.460Z,943.6
2017-09-06T12:52:06.550Z,943.5
2017-09-06T12:53:14.767Z,943.5
2017-09-06T12:54:22.887Z,943.6
2017-09-06T12:55:30.815Z,943.5
2017-09-06T12:56:38.900Z,943.5
2017-09-06T12:57:46.991Z,943.6
2017-09-06T12:58:55.134Z,943.6
2017-09-06T13:00:03.392Z,943.5
2017-09-06T13:01:11.280Z,943.6
2017-09-06T13:02:19.344Z,943.5
2017-09-06T13:03:27.429Z,943.6
2017-09-06T13:04:35.572Z,943.5
2017-09-06T13:05:43.607Z,943.5
2017-09-06T13:06:51.698Z,943.5
2017-09-06T13:07:59.784Z,943.5
2017-09-06T13:09:07.940Z,943.5
2017-09-06T13:10:16.079Z,943.5
2017-09-06T13:11:24.045Z,943.5
2017-09-06T13:12:32.134Z,943.5
2017-09-06T13:13:40.387Z,943.4
2017-09-06T13:14:48.308Z,943.4
2017-09-06T13:15:56.518Z,943.4
2017-09-06T13:17:04.491Z,943.4
2017-09-06T13:18:12.726Z,943.4
2017-09-06T13:19:20.659Z,943.4
2017-09-06T13:20:28.749Z,943.5
2017-09-06T13:21:36.957Z,943.5
2017-09-06T13:22:45.048Z,943.4
2017-09-06T13:23:53.009Z,943.4
2017-09-06T13:25:01.096Z,943.5
2017-09-06T13:26:09.186Z,943.4
2017-09-06T13:27:17.361Z,943.4
2017-09-06T13:28:25.363Z,943.5
2017-09-06T13:29:33.450Z,943.5
2017-09-06T13:30:41.538Z,943.5
2017-09-06T13:31:49.686Z,943.4
2017-09-06T13:32:57.833Z,943.4
2017-09-06T13:34:05.800Z,943.4
2017-09-06T13:35:13.887Z,943.5
2017-09-06T13:36:22.022Z,943.5
2017-09-06T13:37:30.073Z,943.5
2017-09-06T13:38:38.223Z,943.4
2017-09-06T13:39:46.248Z,943.5
2017-09-06T13:40:54.334Z,943.5
2017-09-06T13:42:02.422Z,943.4
2017-09-06T13:43:10.510Z,943.4
2017-09-06T13:44:18.723Z,943.4
2017-09-06T13:45:26.787Z,943.4
2017-09-06T13:46:34.823Z,943.4
2017-09-06T13:47:42.927Z,943.4
2017-09-06T13:48:50.963Z,943.3
2017-09-06T13:49:59.210Z,943.4
2017-09-06T13:51:07.136Z,943.3
2017-09-06T13:52:15.229Z,943.4
2017-09-06T13:53:23.312Z,943.4
2017-09-06T13:54:31.485Z,943.4
2017-09-06T13:55:39.616Z,943.4
2017-09-06T13:56:47.579Z,943.4
2017-09-06T13:57:55.665Z,943.4
2017-09-06T13:59:03.927Z,943.4
2017-09-06T14:00:11.842Z,943.4
2017-09-06T14:01:19.993Z,943.3
2017-09-06T14:02:28.025Z,943.3
2017-09-06T14:03:36.226Z,943.3
2017-09-06T14:04:44.194Z,943.4
2017-09-06T14:05:52.283Z,943.3
2017-09-06T14:07:00.428Z,943.4
2017-09-06T14:08:08.458Z,943.3
2017-09-06T14:09:16.546Z,943.4
2017-09-06T14:10:24.633Z,943.4
2017-09-06T14:11:32.722Z,943.4
2017-09-06T14:12:40.935Z,943.4
2017-09-06T14:13:48.900Z,943.4
2017-09-06T14:14:56.989Z,943.5
2017-09-06T14:16:05.077Z,943.5
2017-09-06T14:17:13.174Z,943.5
2017-09-06T14:18:21.315Z,943.5
2017-09-06T14:19:29.468Z,943.5
2017-09-06T14:20:37.437Z,943.5
2017-09-06T14:21:45.527Z,943.5
2017-09-06T14:22:53.617Z,943.5
2017-09-06T14:24:01.765Z,943.5
2017-09-06T14:25:09.793Z,943.4
2017-09-06T14:26:17.884Z,943.5
2017-09-06T14:27:25.974Z,943.4
2017-09-06T14:28:34.061Z,943.4
2017-09-06T14:29:42.271Z,943.4
2017-09-06T14:30:50.238Z,943.4
2017-09-06T14:31:58.416Z,943.4
2017-09-06T14:33:06.415Z,943.4
2017-09-06T14:34:14.508Z,943.3
2017-09-06T14:35:22.717Z,943.3
2017-09-06T14:36:30.756Z,943.3
2017-09-06T14:37:38.780Z,943.3
2017-09-06T14:38:46.866Z,943.3
2017-09-06T14:39:55.150Z,943.3
2017-09-06T14:41:03.092Z,943.3
2017-09-06T14:42:11.124Z,943.3
2017-09-06T14:43:19.215Z,943.4
2017-09-06T14:44:27.303Z,943.4
2017-09-06T14:45:35.410Z,943.3
2017-09-06T14:46:43.601Z,943.4
2017-09-06T14:47:51.568Z,943.4
2017-09-06T14:48:59.658Z,943.4
2017-09-06T14:50:07.860Z,943.4
2017-09-06T14:51:15.886Z,943.4